Time;durP1;ratioP1;P1;durP2;ratioP2;P2;SDS_P1;SDS_P2;PMS_P1;PMS_P2;Temp;Humidity;BMP_temperature;BMP_pressure;BME280_temperature;BME280_humidity;BME280_pressure;Samples;Min_cycle;Max_cycle;Signal;HPM_P1;HPM_P2
2022/01/18 00:00:17;;;;;;;6.13;2.40;;;10.10;99.90;;;;;;5051048;28;20048;-72
2022/01/18 00:02:43;;;;;;;5.80;3.05;;;10.00;99.90;;;;;;5033202;28;20035;-73
2022/01/18 00:05:15;;;;;;;3.77;1.80;;;10.00;99.90;;;;;;5050646;28;20021;-72
2022/01/18 00:07:43;;;;;;;7.93;2.03;;;10.00;99.90;;;;;;5050377;28;20045;-73
2022/01/18 00:10:11;;;;;;;7.07;1.75;;;10.00;99.90;;;;;;5032437;28;20033;-72
2022/01/18 00:20:48;;;;;;;6.28;1.80;;;10.00;99.90;;;;;;5050438;28;20493;-72
2022/01/18 00:23:15;;;;;;;5.43;2.00;;;10.00;99.90;;;;;;5050813;28;20025;-73
2022/01/18 00:25:45;;;;;;;5.63;1.92;;;9.90;99.90;;;;;;5050351;28;20100;-73
2022/01/18 00:28:11;;;;;;;9.00;2.17;;;9.90;99.90;;;;;;5050314;28;20060;-73
2022/01/18 00:31:21;;;;;;;6.65;2.17;;;10.00;99.90;;;;;;5050550;28;20068;-74
2022/01/18 00:33:50;;;;;;;5.75;1.98;;;10.00;99.90;;;;;;5050073;28;20067;-72
2022/01/18 00:39:14;;;;;;;5.25;2.13;;;9.90;99.90;;;;;;5008368;28;20037;-73
2022/01/18 00:41:40;;;;;;;5.63;1.95;;;9.90;99.90;;;;;;5008381;28;20036;-72
2022/01/18 00:44:08;;;;;;;6.00;2.20;;;9.80;99.90;;;;;;5008605;28;20030;-73
2022/01/18 00:46:35;;;;;;;4.82;2.10;;;9.80;99.90;;;;;;5008242;28;20037;-73
2022/01/18 00:49:02;;;;;;;;;;;9.80;99.90;;;;;;5008398;28;20489;-72
2022/01/18 00:51:31;;;;;;;5.85;2.10;;;9.80;99.90;;;;;;5008270;28;19909;-72
2022/01/18 00:53:58;;;;;;;5.85;2.30;;;9.80;99.90;;;;;;5008421;28;20041;-73
2022/01/18 00:56:30;;;;;;;6.85;2.33;;;9.90;99.90;;;;;;5008413;28;20034;-72
2022/01/18 00:58:56;;;;;;;6.13;2.05;;;9.90;99.90;;;;;;5008447;28;20114;-72
2022/01/18 01:01:26;;;;;;;4.30;2.10;;;9.90;99.90;;;;;;5008374;28;20336;-72
2022/01/18 01:03:55;;;;;;;6.20;2.10;;;9.80;99.90;;;;;;5008278;28;20034;-71
2022/01/18 01:06:22;;;;;;;6.93;2.28;;;9.70;99.90;;;;;;5007596;28;20049;-72
2022/01/18 01:08:50;;;;;;;4.40;2.00;;;9.50;99.90;;;;;;5008186;28;20041;-72
2022/01/18 01:11:17;;;;;;;5.15;2.17;;;9.50;99.90;;;;;;5007776;28;20133;-72
2022/01/18 01:13:46;;;;;;;5.88;2.00;;;9.60;99.90;;;;;;5010045;28;20056;-72
2022/01/18 01:16:34;;;;;;;6.40;2.58;;;9.60;99.90;;;;;;5049582;28;20089;-72
2022/01/18 01:43:18;;;;;;;7.65;1.90;;;9.60;99.90;;;;;;5049654;28;20048;-71
2022/01/18 01:45:44;;;;;;;5.53;1.60;;;9.70;99.90;;;;;;5031166;28;20124;-72
2022/01/18 01:48:10;;;;;;;5.40;2.03;;;9.70;99.90;;;;;;5049564;28;20032;-71
2022/01/18 01:53:14;;;;;;;5.67;2.00;;;9.70;99.90;;;;;;5049608;28;20546;-71
2022/01/18 01:55:40;;;;;;;6.97;2.30;;;9.80;99.90;;;;;;5049089;28;20025;-71
2022/01/18 01:58:07;;;;;;;5.63;1.90;;;9.80;99.90;;;;;;5049124;28;20029;-73
2022/01/18 02:00:34;;;;;;;6.57;2.20;;;9.80;99.90;;;;;;5049277;28;20040;-71
2022/01/18 02:03:00;;;;;;;;;;;9.80;99.90;;;;;;5053443;28;20025;-71
2022/01/18 02:05:27;;;;;;;5.20;1.80;;;9.80;99.90;;;;;;5052555;28;20206;-71
2022/01/18 02:07:53;;;;;;;5.60;2.10;;;9.80;99.90;;;;;;5052494;28;20167;-71
2022/01/18 02:10:19;;;;;;;5.55;1.92;;;9.80;99.90;;;;;;5052546;28;20424;-71
2022/01/18 02:12:45;;;;;;;6.32;1.92;;;9.70;99.90;;;;;;5052788;28;20029;-71
2022/01/18 02:15:15;;;;;;;6.47;1.95;;;9.70;99.90;;;;;;5052984;28;20087;-71
2022/01/18 02:23:28;;;;;;;8.50;2.45;;;9.70;99.90;;;;;;5052618;28;20158;-71
2022/01/18 02:25:54;;;;;;;;;;;9.70;99.90;;;;;;5052914;28;20017;-73
2022/01/18 02:28:24;;;;;;;5.40;2.00;;;9.70;99.90;;;;;;5052383;28;20046;-71
2022/01/18 02:30:51;;;;;;;6.45;1.77;;;9.60;99.90;;;;;;5052111;28;20432;-72
2022/01/18 02:33:18;;;;;;;7.25;2.00;;;9.60;99.90;;;;;;5051988;28;20033;-72
2022/01/18 02:35:45;;;;;;;8.57;2.28;;;9.60;99.90;;;;;;5052271;28;20033;-71
2022/01/18 02:38:11;;;;;;;5.88;2.00;;;9.60;99.90;;;;;;5052082;28;20021;-71
2022/01/18 02:40:38;;;;;;;6.95;2.22;;;9.70;99.90;;;;;;5051817;28;20029;-73
2022/01/18 02:45:53;;;;;;;5.85;2.00;;;9.70;99.90;;;;;;5052355;28;20376;-74
2022/01/18 02:48:19;;;;;;;5.75;1.95;;;9.70;99.90;;;;;;5033818;28;20025;-72
2022/01/18 02:50:46;;;;;;;5.07;1.70;;;9.60;99.90;;;;;;5052113;28;20094;-71
2022/01/18 02:53:13;;;;;;;4.63;1.83;;;9.60;99.90;;;;;;5051998;28;20041;-72
2022/01/18 02:55:40;;;;;;;6.00;2.25;;;9.60;99.90;;;;;;5051617;28;20140;-71
2022/01/18 02:58:10;;;;;;;7.47;1.95;;;9.60;99.90;;;;;;5052227;28;20033;-73
2022/01/18 03:03:24;;;;;;;6.28;2.20;;;9.60;99.90;;;;;;5052116;28;20118;-73
2022/01/18 03:05:50;;;;;;;6.75;2.17;;;9.50;99.90;;;;;;5051506;28;20572;-73
2022/01/18 03:08:17;;;;;;;7.97;2.13;;;9.60;99.90;;;;;;5051794;28;20536;-73
2022/01/18 03:10:44;;;;;;;7.40;2.30;;;9.70;99.90;;;;;;5051919;28;20017;-73
2022/01/18 03:13:10;;;;;;;12.45;2.75;;;9.60;99.90;;;;;;5051186;28;20029;-73
2022/01/18 03:15:37;;;;;;;4.63;2.00;;;9.60;99.90;;;;;;5051593;28;20025;-73
2022/01/18 03:18:06;;;;;;;6.35;2.30;;;9.60;99.90;;;;;;5051584;28;20259;-72
2022/01/18 03:20:33;;;;;;;8.50;2.67;;;9.50;99.90;;;;;;5051590;28;20035;-71
2022/01/18 03:22:59;;;;;;;6.22;2.05;;;9.50;99.90;;;;;;5051560;28;20057;-71
2022/01/18 03:25:39;;;;;;;4.70;2.03;;;9.50;99.90;;;;;;5051362;28;20124;-72
2022/01/18 03:28:09;;;;;;;5.32;1.98;;;9.50;99.90;;;;;;5051554;28;20532;-73
2022/01/18 03:30:43;;;;;;;7.82;2.13;;;9.50;99.90;;;;;;5050829;28;20021;-71
2022/01/18 03:33:14;;;;;;;9.85;2.75;;;9.50;99.90;;;;;;5050994;28;20071;-71
2022/01/18 03:35:41;;;;;;;3.50;1.90;;;9.50;99.90;;;;;;5050970;28;20041;-71
2022/01/18 03:38:07;;;;;;;7.65;1.88;;;9.50;99.90;;;;;;5051134;28;20066;-72
2022/01/18 03:40:34;;;;;;;5.93;1.88;;;9.50;99.90;;;;;;5051404;28;20033;-72
2022/01/18 03:43:01;;;;;;;4.85;2.05;;;9.50;99.90;;;;;;5051062;28;20029;-71
2022/01/18 03:45:32;;;;;;;4.38;1.80;;;9.50;99.90;;;;;;5051001;28;20037;-72
2022/01/18 03:48:04;;;;;;;4.63;2.20;;;9.50;99.90;;;;;;5050882;28;20108;-72
2022/01/18 03:50:30;;;;;;;6.20;2.55;;;9.50;99.90;;;;;;5050762;28;20045;-71
2022/01/18 03:52:56;;;;;;;6.85;1.85;;;9.60;99.90;;;;;;5050614;28;20078;-72
2022/01/18 03:55:23;;;;;;;5.90;2.20;;;9.60;99.90;;;;;;5050856;28;20021;-71
2022/01/18 03:57:49;;;;;;;6.57;2.08;;;9.60;99.90;;;;;;5050710;28;20029;-70
2022/01/18 04:00:21;;;;;;;7.43;2.05;;;9.60;99.90;;;;;;5050633;28;20051;-72
2022/01/18 04:02:48;;;;;;;9.35;2.10;;;9.50;99.90;;;;;;5050976;28;20532;-72
2022/01/18 04:05:13;;;;;;;;;;;9.50;99.90;;;;;;5050896;28;20098;-72
2022/01/18 04:07:40;;;;;;;9.43;2.17;;;9.60;99.90;;;;;;5050880;28;19959;-72
2022/01/18 04:10:08;;;;;;;7.57;2.10;;;9.60;99.90;;;;;;5032937;28;20032;-72
2022/01/18 04:12:34;;;;;;;6.07;2.70;;;9.60;99.90;;;;;;5050968;28;20027;-72
2022/01/18 04:15:04;;;;;;;5.60;2.67;;;9.60;99.90;;;;;;5051029;28;20437;-72
2022/01/18 04:17:47;;;;;;;3.58;1.88;;;9.60;99.90;;;;;;5051025;28;20021;-71
2022/01/18 04:26:52;;;;;;;7.53;2.50;;;9.60;99.90;;;;;;5052590;28;20100;-71
2022/01/18 04:28:53;;;;;;;6.50;2.50;;;9.60;99.90;;;;;;5051659;28;20040;-71
2022/01/18 04:31:20;;;;;;;6.07;1.92;;;9.50;99.90;;;;;;5052136;28;20418;-72
2022/01/18 04:33:46;;;;;;;4.88;2.30;;;9.50;99.90;;;;;;5052266;28;20543;-71
2022/01/18 04:36:12;;;;;;;6.97;2.47;;;9.50;99.90;;;;;;5052188;28;20025;-71
2022/01/18 04:38:39;;;;;;;7.70;2.30;;;9.60;99.90;;;;;;5051641;28;20350;-71
2022/01/18 04:41:09;;;;;;;5.88;2.17;;;9.60;99.90;;;;;;5051606;28;20086;-72
2022/01/18 04:49:07;;;;;;;5.65;2.10;;;9.50;99.90;;;;;;5051955;28;20083;-72
2022/01/18 04:51:33;;;;;;;5.10;2.25;;;9.60;99.90;;;;;;5051572;28;20040;-72
2022/01/18 04:54:01;;;;;;;6.93;2.20;;;9.70;99.90;;;;;;5051556;28;20120;-71
2022/01/18 04:59:06;;;;;;;4.78;1.85;;;9.70;99.90;;;;;;5051482;28;20025;-73
2022/01/18 05:01:33;;;;;;;5.60;2.15;;;9.80;99.90;;;;;;5052005;28;20504;-72
2022/01/18 05:03:59;;;;;;;7.05;2.10;;;9.80;99.90;;;;;;5051962;28;20473;-72
2022/01/18 05:06:25;;;;;;;6.43;2.05;;;9.70;99.90;;;;;;5051665;28;20564;-73
2022/01/18 05:08:52;;;;;;;9.83;4.43;;;9.70;99.90;;;;;;5051678;28;20536;-74
2022/01/18 05:11:21;;;;;;;12.18;3.53;;;9.60;99.90;;;;;;5051564;28;20071;-73
2022/01/18 05:24:05;;;;;;;9.43;2.60;;;9.40;99.90;;;;;;5052032;28;20461;-74
2022/01/18 05:26:31;;;;;;;5.40;2.22;;;9.40;99.90;;;;;;5051962;28;20040;-72
2022/01/18 05:28:57;;;;;;;5.47;2.38;;;9.40;99.90;;;;;;5051921;28;20112;-72
2022/01/18 05:31:25;;;;;;;5.97;1.93;;;9.50;99.90;;;;;;5052293;28;20074;-72
2022/01/18 05:33:51;;;;;;;4.45;1.80;;;9.60;99.90;;;;;;5051770;28;20029;-72
2022/01/18 05:36:17;;;;;;;4.13;1.90;;;9.70;99.90;;;;;;5054723;28;20056;-73
2022/01/18 05:38:43;;;;;;;7.07;2.15;;;9.70;99.90;;;;;;5055643;28;20083;-71
2022/01/18 05:41:11;;;;;;;8.85;2.60;;;9.60;99.90;;;;;;5056168;28;20385;-71
2022/01/18 05:43:38;;;;;;;3.65;1.75;;;9.50;99.90;;;;;;5055624;28;20162;-71
2022/01/18 05:46:04;;;;;;;7.80;2.28;;;9.40;99.90;;;;;;5056032;28;20393;-72
2022/01/18 05:48:30;;;;;;;7.72;2.05;;;9.40;99.90;;;;;;5056010;28;20017;-71
2022/01/18 05:50:59;;;;;;;6.43;2.00;;;9.40;99.90;;;;;;5056113;28;20048;-72
2022/01/18 05:53:35;;;;;;;10.13;2.67;;;9.30;99.90;;;;;;5055343;28;20544;-73
2022/01/18 05:56:02;;;;;;;8.35;2.40;;;9.30;99.90;;;;;;5055508;28;20050;-72
2022/01/18 05:58:28;;;;;;;6.47;2.40;;;9.30;99.90;;;;;;5055243;28;20033;-72
2022/01/18 06:00:55;;;;;;;6.53;2.20;;;9.30;99.90;;;;;;5055731;28;20471;-72
2022/01/18 06:03:49;;;;;;;6.93;2.92;;;9.30;99.90;;;;;;5055956;28;20044;-71
2022/01/18 06:08:59;;;;;;;7.13;2.38;;;9.40;99.90;;;;;;5055580;28;20044;-71
2022/01/18 06:11:26;;;;;;;8.75;2.47;;;9.40;99.90;;;;;;5055118;28;20025;-72
2022/01/18 06:13:52;;;;;;;4.32;2.15;;;9.50;99.90;;;;;;5054549;28;20071;-72
2022/01/18 06:16:18;;;;;;;6.35;2.22;;;9.50;99.90;;;;;;5054812;28;20025;-73
2022/01/18 06:18:44;;;;;;;5.47;2.10;;;9.50;99.90;;;;;;5037683;28;20143;-73
2022/01/18 06:21:10;;;;;;;9.18;2.97;;;9.50;99.90;;;;;;5055538;28;20029;-71
2022/01/18 06:23:37;;;;;;;10.10;3.90;;;9.40;99.90;;;;;;5055608;28;20473;-72
2022/01/18 06:26:03;;;;;;;11.33;4.30;;;9.40;99.90;;;;;;5055336;28;20520;-73
2022/01/18 06:28:34;;;;;;;14.02;5.95;;;9.50;99.90;;;;;;5055450;28;20116;-72
2022/01/18 06:31:00;;;;;;;12.88;6.03;;;9.50;99.90;;;;;;5054204;28;20033;-72
2022/01/18 06:33:26;;;;;;;13.05;5.50;;;9.60;99.90;;;;;;5054665;28;20055;-73
2022/01/18 06:35:52;;;;;;;11.98;4.60;;;9.70;99.90;;;;;;5054811;28;20311;-73
2022/01/18 06:38:18;;;;;;;10.90;3.90;;;10.00;99.90;;;;;;5054266;28;20028;-73
2022/01/18 06:40:46;;;;;;;9.43;3.80;;;10.70;99.90;;;;;;5053888;28;20321;-73
2022/01/18 06:43:12;;;;;;;8.52;2.78;;;11.60;99.90;;;;;;5053721;28;20025;-74
2022/01/18 06:45:38;;;;;;;6.82;2.40;;;12.30;99.90;;;;;;5053688;28;20017;-73
2022/01/18 06:48:04;;;;;;;10.43;2.97;;;13.10;99.30;;;;;;5052957;28;20025;-74
2022/01/18 06:50:30;;;;;;;7.78;2.42;;;13.60;98.80;;;;;;5052901;28;20025;-72
2022/01/18 06:52:56;;;;;;;7.43;2.67;;;14.10;97.90;;;;;;5034874;28;20032;-74
2022/01/18 06:55:22;;;;;;;7.87;2.50;;;14.80;97.10;;;;;;5053265;28;20108;-75
2022/01/18 06:57:48;;;;;;;10.90;2.50;;;15.70;96.10;;;;;;5052864;28;20021;-71
2022/01/18 07:00:15;;;;;;;8.43;2.90;;;16.70;94.70;;;;;;5052836;28;20033;-77
2022/01/18 07:02:41;;;;;;;12.93;3.67;;;17.40;93.30;;;;;;5052688;28;20040;-72
2022/01/18 07:05:07;;;;;;;11.20;3.85;;;18.20;92.20;;;;;;5052696;28;20035;-72
2022/01/18 07:07:33;;;;;;;6.72;2.80;;;18.90;91.40;;;;;;5052649;28;20045;-72
2022/01/18 07:09:59;;;;;;;11.32;3.03;;;19.60;90.30;;;;;;5054123;28;20109;-72
2022/01/18 07:12:26;;;;;;;16.70;4.00;;;20.30;89.10;;;;;;5035059;28;20466;-73
2022/01/18 07:14:52;;;;;;;9.23;3.13;;;20.90;86.00;;;;;;5052802;28;20040;-72
2022/01/18 07:17:18;;;;;;;13.45;3.30;;;21.30;84.10;;;;;;5053640;28;20017;-72
2022/01/18 07:19:44;;;;;;;8.52;3.08;;;21.80;83.00;;;;;;5035605;28;20056;-73
2022/01/18 07:22:10;;;;;;;5.40;2.90;;;22.30;80.20;;;;;;5053168;28;20099;-72
2022/01/18 07:24:41;;;;;;;5.70;2.40;;;22.40;79.40;;;;;;5053242;28;20036;-73
2022/01/18 07:27:09;;;;;;;9.43;2.50;;;21.50;78.70;;;;;;5053136;28;20039;-73
2022/01/18 07:29:35;;;;;;;9.77;2.50;;;21.00;80.40;;;;;;5052898;28;20024;-71
2022/01/18 07:32:02;;;;;;;5.65;2.30;;;21.00;80.20;;;;;;5053011;28;20061;-72
2022/01/18 07:34:30;;;;;;;17.13;2.60;;;21.20;79.70;;;;;;5053118;28;20032;-73
2022/01/18 07:36:56;;;;;;;8.35;2.42;;;21.60;78.70;;;;;;5035022;28;20068;-73
2022/01/18 07:39:22;;;;;;;12.05;2.40;;;21.50;78.60;;;;;;5052839;28;20029;-72
2022/01/18 07:41:48;;;;;;;8.55;2.95;;;21.10;78.50;;;;;;5052979;28;20075;-74
2022/01/18 07:44:14;;;;;;;10.50;2.53;;;19.80;80.30;;;;;;5053133;28;20031;-73
2022/01/18 07:46:40;;;;;;;8.57;2.60;;;19.60;82.30;;;;;;5053079;28;20025;-71
2022/01/18 07:49:07;;;;;;;9.90;2.70;;;19.30;82.10;;;;;;5052976;28;20449;-73
2022/01/18 07:51:33;;;;;;;9.13;2.78;;;19.80;81.50;;;;;;5053033;28;20036;-70
2022/01/18 07:53:59;;;;;;;10.65;2.15;;;20.00;81.70;;;;;;5052377;28;20025;-74
2022/01/18 07:56:25;;;;;;;13.32;3.47;;;19.80;81.40;;;;;;5052579;28;20029;-74
2022/01/18 07:58:51;;;;;;;8.68;2.97;;;19.50;82.30;;;;;;5052374;28;20021;-72
2022/01/18 08:01:19;;;;;;;7.53;2.40;;;19.10;83.30;;;;;;5052713;28;20040;-74
2022/01/18 08:03:45;;;;;;;7.68;2.30;;;18.20;84.80;;;;;;5052195;28;20025;-73
2022/01/18 08:06:11;;;;;;;10.27;2.58;;;17.30;86.50;;;;;;5052015;28;20049;-73
2022/01/18 08:08:39;;;;;;;7.72;2.33;;;16.80;88.40;;;;;;5052573;28;20422;-74
2022/01/18 08:11:06;;;;;;;8.00;2.28;;;16.30;89.20;;;;;;5052261;28;20187;-72
2022/01/18 08:13:46;;;;;;;9.88;2.72;;;16.00;90.10;;;;;;5052075;28;20059;-73
2022/01/18 08:16:34;;;;;;;5.65;2.50;;;15.60;90.40;;;;;;5052452;28;20344;-73
2022/01/18 08:19:03;;;;;;;5.78;2.53;;;15.50;91.00;;;;;;5051956;28;20422;-70
2022/01/18 08:21:29;;;;;;;7.75;2.42;;;15.40;91.40;;;;;;5052240;28;20029;-74
2022/01/18 08:23:55;;;;;;;6.10;2.20;;;15.40;91.30;;;;;;5051914;28;20021;-73
2022/01/18 08:26:21;;;;;;;5.03;2.08;;;15.20;91.30;;;;;;5051901;28;20061;-73
2022/01/18 08:28:47;;;;;;;8.00;2.30;;;15.10;91.40;;;;;;5052368;28;20044;-72
2022/01/18 08:31:14;;;;;;;7.20;2.50;;;15.20;91.40;;;;;;5051860;28;20271;-72
2022/01/18 08:33:40;;;;;;;8.45;2.65;;;15.40;91.60;;;;;;5051313;28;20033;-72
2022/01/18 08:36:07;;;;;;;5.25;2.20;;;15.40;92.10;;;;;;5052104;28;20067;-73
2022/01/18 08:38:34;;;;;;;8.18;2.70;;;15.30;91.80;;;;;;5051870;28;20067;-72
2022/01/18 08:41:01;;;;;;;6.80;2.30;;;15.30;92.80;;;;;;5051874;28;20033;-72
2022/01/18 08:43:30;;;;;;;;;;;15.40;92.10;;;;;;5052027;28;20495;-73
2022/01/18 08:45:58;;;;;;;5.72;2.10;;;15.40;91.90;;;;;;5033594;28;19913;-73
2022/01/18 08:48:24;;;;;;;4.68;1.92;;;15.50;92.30;;;;;;5051876;28;20056;-73
2022/01/18 08:50:50;;;;;;;7.00;2.00;;;15.50;91.40;;;;;;5051982;28;20029;-72
2022/01/18 08:53:16;;;;;;;4.53;2.00;;;15.40;91.50;;;;;;5050361;28;20017;-73
2022/01/18 08:55:42;;;;;;;8.40;2.50;;;15.50;91.60;;;;;;5032368;28;20121;-72
2022/01/18 08:58:08;;;;;;;4.63;1.90;;;15.70;91.60;;;;;;5048884;28;20627;-74
2022/01/18 09:00:35;;;;;;;10.32;2.50;;;15.80;91.30;;;;;;5049165;28;20021;-73
2022/01/18 09:03:02;;;;;;;5.85;2.00;;;15.70;91.40;;;;;;5049174;28;20534;-73
2022/01/18 09:05:28;;;;;;;5.75;1.98;;;15.80;91.40;;;;;;5048665;28;20017;-72
2022/01/18 09:08:01;;;;;;;7.68;2.25;;;16.00;91.10;;;;;;5049021;28;20064;-74
2022/01/18 09:10:27;;;;;;;8.65;2.42;;;15.70;91.00;;;;;;5050659;28;20356;-74
2022/01/18 09:12:53;;;;;;;5.22;1.95;;;16.00;91.20;;;;;;5054612;28;20177;-73
2022/01/18 09:15:20;;;;;;;7.95;2.38;;;15.80;91.20;;;;;;5054333;28;20185;-72
2022/01/18 09:17:46;;;;;;;7.13;2.30;;;15.80;91.20;;;;;;5055357;28;20096;-75
2022/01/18 09:20:13;;;;;;;7.05;2.15;;;16.10;91.30;;;;;;5037569;28;20040;-72
2022/01/18 09:22:43;;;;;;;5.38;1.88;;;16.30;90.70;;;;;;5055525;28;20064;-73
2022/01/18 09:25:12;;;;;;;6.18;2.25;;;15.80;91.40;;;;;;5055660;28;20021;-75
2022/01/18 09:27:38;;;;;;;7.03;2.00;;;15.70;91.40;;;;;;5055654;28;20032;-74
2022/01/18 09:30:06;;;;;;;6.65;2.00;;;15.70;91.30;;;;;;5055318;28;20068;-74
2022/01/18 09:32:32;;;;;;;4.07;1.77;;;15.70;91.20;;;;;;5055519;28;20493;-74
2022/01/18 09:34:58;;;;;;;9.88;2.20;;;15.70;91.20;;;;;;5056050;28;20045;-74
2022/01/18 09:37:24;;;;;;;4.10;1.60;;;15.70;91.30;;;;;;5055959;28;20064;-74
2022/01/18 09:39:53;;;;;;;6.47;2.13;;;15.80;91.10;;;;;;5056152;28;20353;-73
2022/01/18 09:42:22;;;;;;;10.35;2.35;;;15.60;90.90;;;;;;5037152;28;20524;-74
2022/01/18 09:44:48;;;;;;;5.32;1.70;;;15.40;91.10;;;;;;5055040;28;20033;-75
2022/01/18 09:47:15;;;;;;;4.07;1.65;;;15.30;90.90;;;;;;5054942;28;20465;-72
2022/01/18 09:49:41;;;;;;;7.55;1.80;;;15.40;90.90;;;;;;5055611;28;20036;-72
2022/01/18 09:52:07;;;;;;;6.32;1.73;;;15.40;90.90;;;;;;5054851;28;20028;-74
2022/01/18 09:54:33;;;;;;;4.57;1.90;;;15.60;90.90;;;;;;5054502;28;20036;-74
2022/01/18 09:56:59;;;;;;;4.07;1.77;;;15.80;90.90;;;;;;5055012;28;20032;-74
2022/01/18 09:59:26;;;;;;;4.50;1.70;;;16.10;90.90;;;;;;5054200;28;20025;-73
2022/01/18 10:01:52;;;;;;;7.37;1.90;;;16.10;90.30;;;;;;5053736;28;20036;-74
2022/01/18 10:04:21;;;;;;;7.82;2.03;;;16.00;90.60;;;;;;5054036;28;20266;-73
2022/01/18 10:06:51;;;;;;;8.57;1.85;;;15.90;91.30;;;;;;5054008;28;20071;-73
2022/01/18 10:09:19;;;;;;;5.63;1.88;;;16.10;90.70;;;;;;5054680;28;20326;-74
2022/01/18 10:12:10;;;;;;;5.03;1.88;;;15.90;91.10;;;;;;5054167;28;20025;-74
2022/01/18 10:14:41;;;;;;;6.13;1.88;;;16.30;90.70;;;;;;5054461;28;20045;-73
2022/01/18 10:17:10;;;;;;;7.05;1.92;;;16.00;90.60;;;;;;5054284;28;20084;-73
2022/01/18 10:19:49;;;;;;;8.50;2.10;;;15.60;91.10;;;;;;5053885;28;20378;-73
2022/01/18 10:22:19;;;;;;;6.57;2.13;;;15.80;91.40;;;;;;5052431;28;20457;-69
2022/01/18 10:24:45;;;;;;;6.72;2.13;;;16.00;91.40;;;;;;5052657;28;20044;-74
2022/01/18 10:27:13;;;;;;;8.27;2.20;;;15.80;91.30;;;;;;5054067;28;20029;-74
2022/01/18 10:30:06;;;;;;;5.05;1.70;;;15.60;91.40;;;;;;5054010;28;20029;-74
2022/01/18 10:32:38;;;;;;;4.95;1.63;;;15.90;91.20;;;;;;5054167;28;20465;-74
2022/01/18 10:35:09;;;;;;;7.60;1.98;;;15.90;91.00;;;;;;5053814;28;20486;-73
2022/01/18 10:37:41;;;;;;;8.82;2.20;;;15.90;91.40;;;;;;5053036;28;20021;-73
2022/01/18 10:40:15;;;;;;;5.88;2.05;;;16.10;91.30;;;;;;5051824;28;20036;-74
2022/01/18 10:42:47;;;;;;;8.05;1.90;;;16.10;91.30;;;;;;5054012;28;20048;-75
2022/01/18 10:45:31;;;;;;;13.63;2.67;;;16.10;91.10;;;;;;5054092;28;20032;-75
2022/01/18 10:48:01;;;;;;;8.35;2.30;;;16.20;90.60;;;;;;5054158;28;20053;-72
2022/01/18 10:50:34;;;;;;;5.43;1.98;;;16.20;91.20;;;;;;5054026;28;20032;-73
2022/01/18 10:53:21;;;;;;;8.82;2.00;;;16.00;91.40;;;;;;5053574;28;20414;-73
2022/01/18 10:55:50;;;;;;;8.77;2.20;;;16.00;91.50;;;;;;5053489;28;20235;-73
2022/01/18 10:58:19;;;;;;;8.82;2.28;;;16.10;91.40;;;;;;5053358;28;20032;-74
2022/01/18 11:00:46;;;;;;;4.43;1.70;;;15.80;93.40;;;;;;5053874;28;20074;-73
2022/01/18 11:03:11;;;;;;;;;;;15.90;91.10;;;;;;5053599;28;20346;-73
2022/01/18 11:05:40;;;;;;;9.68;1.80;;;15.90;90.90;;;;;;5052371;28;19905;-73
2022/01/18 11:08:07;;;;;;;4.82;1.60;;;15.80;91.10;;;;;;5052446;28;20418;-73
2022/01/18 11:10:41;;;;;;;5.25;2.00;;;15.70;91.50;;;;;;5052738;28;20087;-73
2022/01/18 11:13:17;;;;;;;10.38;2.20;;;15.90;91.60;;;;;;5052753;28;20377;-74
2022/01/18 11:15:48;;;;;;;5.63;1.90;;;15.90;91.80;;;;;;5034828;28;20025;-72
2022/01/18 11:18:18;;;;;;;5.45;1.75;;;16.30;91.50;;;;;;5052352;28;20480;-74
2022/01/18 11:20:47;;;;;;;6.57;1.92;;;16.50;91.10;;;;;;5052153;28;20033;-72
2022/01/18 11:23:14;;;;;;;6.97;2.22;;;16.50;91.60;;;;;;5035208;28;20078;-74
2022/01/18 11:25:40;;;;;;;;;;;16.70;91.50;;;;;;5053204;28;20025;-73
2022/01/18 11:28:09;;;;;;;5.38;1.92;;;17.10;91.20;;;;;;5053029;28;19905;-72
2022/01/18 11:30:38;;;;;;;5.00;1.67;;;17.10;90.20;;;;;;5052727;28;20381;-72
2022/01/18 11:33:12;;;;;;;6.50;1.80;;;17.00;90.20;;;;;;5052306;28;20067;-73
2022/01/18 11:35:53;;;;;;;5.32;1.45;;;16.80;89.20;;;;;;5052887;28;20029;-73
2022/01/18 11:38:41;;;;;;;4.25;1.70;;;16.20;89.00;;;;;;5052497;28;20055;-72
2022/01/18 11:41:21;;;;;;;5.50;1.67;;;16.20;90.10;;;;;;5052863;28;20107;-72
2022/01/18 11:43:47;;;;;;;5.82;1.70;;;16.80;89.60;;;;;;5052926;28;20032;-72
2022/01/18 11:46:40;;;;;;;5.22;1.52;;;17.10;88.40;;;;;;5053007;28;20436;-73
2022/01/18 11:49:14;;;;;;;8.75;2.30;;;17.40;86.50;;;;;;5052371;28;20060;-73
2022/01/18 11:51:48;;;;;;;6.15;2.00;;;17.40;87.00;;;;;;5052866;28;20033;-72
2022/01/18 11:54:36;;;;;;;5.13;1.90;;;17.80;90.00;;;;;;5052457;28;20065;-74
2022/01/18 11:57:24;;;;;;;5.10;2.53;;;17.90;89.90;;;;;;5052228;28;20037;-73
2022/01/18 11:59:58;;;;;;;7.90;2.17;;;18.10;89.80;;;;;;5052325;28;20462;-73
2022/01/18 12:02:30;;;;;;;6.40;2.13;;;17.90;89.50;;;;;;5051066;28;20033;-72
2022/01/18 12:05:03;;;;;;;4.60;1.67;;;17.30;90.50;;;;;;5050544;28;20108;-68
2022/01/18 12:07:36;;;;;;;8.90;2.03;;;16.80;91.20;;;;;;5048187;28;20124;-71
2022/01/18 12:10:02;;;;;;;6.07;1.70;;;16.50;92.20;;;;;;5051547;28;20044;-72
2022/01/18 12:12:45;;;;;;;9.75;2.10;;;16.30;91.40;;;;;;5051966;28;20473;-72
2022/01/18 12:15:22;;;;;;;5.57;1.85;;;16.10;91.90;;;;;;5034119;28;20040;-71
2022/01/18 12:17:53;;;;;;;7.93;1.67;;;16.40;91.50;;;;;;5051967;28;20112;-72
2022/01/18 12:20:46;;;;;;;4.53;1.75;;;16.60;90.80;;;;;;5052447;28;20028;-72
2022/01/18 12:23:24;;;;;;;7.25;1.83;;;16.40;90.70;;;;;;5052528;28;20167;-73
2022/01/18 12:25:56;;;;;;;7.15;1.90;;;16.00;90.90;;;;;;5051543;28;20513;-73
2022/01/18 12:34:45;;;;;;;4.95;1.65;;;15.70;91.80;;;;;;5051180;28;20040;-74
2022/01/18 12:37:13;;;;;;;7.30;2.30;;;16.10;91.90;;;;;;5051918;28;20021;-71
2022/01/18 12:40:05;;;;;;;8.68;2.15;;;16.60;92.20;;;;;;5034209;28;20424;-72
2022/01/18 12:45:19;;;;;;;5.93;2.10;;;17.30;91.60;;;;;;5051564;28;20063;-73
2022/01/18 12:47:48;;;;;;;8.82;1.95;;;17.60;91.40;;;;;;5034850;28;20099;-72
2022/01/18 12:50:22;;;;;;;6.47;1.90;;;17.80;93.50;;;;;;5051784;28;20021;-73
2022/01/18 12:52:53;;;;;;;8.65;2.28;;;18.10;91.90;;;;;;5051860;28;20036;-71
2022/01/18 12:55:38;;;;;;;11.82;2.08;;;18.20;91.30;;;;;;5052282;28;20492;-73
2022/01/18 12:58:21;;;;;;;5.68;1.85;;;18.30;91.20;;;;;;5052584;28;20013;-71
2022/01/18 13:00:50;;;;;;;7.03;2.00;;;18.30;91.00;;;;;;5050759;28;20168;-72
2022/01/18 13:03:20;;;;;;;6.82;2.30;;;18.40;91.60;;;;;;5051563;28;20075;-70
2022/01/18 13:05:48;;;;;;;7.95;2.03;;;18.60;91.80;;;;;;5052002;28;20017;-71
2022/01/18 13:08:17;;;;;;;11.02;2.13;;;18.50;91.10;;;;;;5052278;28;20409;-71
2022/01/18 13:10:46;;;;;;;7.85;2.10;;;18.20;91.70;;;;;;5051914;28;20021;-71
2022/01/18 13:13:15;;;;;;;5.97;2.33;;;18.20;92.20;;;;;;5052008;28;20055;-71
2022/01/18 13:26:50;;;;;;;8.27;2.00;;;17.40;92.70;;;;;;5052609;28;20036;-71
2022/01/18 13:29:20;;;;;;;8.93;2.22;;;17.60;93.10;;;;;;5052225;28;20449;-71
2022/01/18 13:32:17;;;;;;;9.20;2.40;;;17.40;93.20;;;;;;5052679;28;20021;-71
2022/01/18 13:34:46;;;;;;;8.75;2.20;;;17.50;92.90;;;;;;5052506;28;20381;-71
2022/01/18 13:37:16;;;;;;;7.88;2.22;;;17.50;93.00;;;;;;5051939;28;20025;-71
2022/01/18 13:39:51;;;;;;;5.97;2.10;;;17.30;93.50;;;;;;5051913;28;20122;-70
2022/01/18 13:42:23;;;;;;;12.90;2.50;;;17.50;93.30;;;;;;5052456;28;20056;-72
2022/01/18 13:45:20;;;;;;;5.35;2.00;;;17.40;93.30;;;;;;5051760;28;20037;-68
2022/01/18 13:48:01;;;;;;;8.77;1.95;;;17.50;93.20;;;;;;5049757;28;20045;-71
2022/01/18 13:50:43;;;;;;;6.80;2.17;;;17.50;93.30;;;;;;5051718;28;20087;-71
2022/01/18 13:53:14;;;;;;;9.77;2.03;;;17.40;93.40;;;;;;5033749;28;20091;-66
2022/01/18 13:55:46;;;;;;;8.88;2.13;;;17.50;93.10;;;;;;5052065;28;20025;-67
2022/01/18 13:58:12;;;;;;;6.35;1.80;;;17.50;92.80;;;;;;5056041;28;20025;-68
2022/01/18 14:00:38;;;;;;;8.50;1.95;;;17.60;93.20;;;;;;5054562;28;20021;-71
2022/01/18 14:03:04;;;;;;;6.57;2.20;;;17.60;93.10;;;;;;5054283;28;20025;-69
2022/01/18 14:05:30;;;;;;;7.37;2.50;;;17.60;93.20;;;;;;5055325;28;20127;-70
2022/01/18 14:08:06;;;;;;;9.03;2.43;;;17.50;93.50;;;;;;5055568;28;20346;-70
2022/01/18 14:10:33;;;;;;;11.45;2.47;;;17.50;93.80;;;;;;5054807;28;20321;-73
2022/01/18 14:12:59;;;;;;;6.75;2.15;;;17.20;94.30;;;;;;5054825;28;20081;-72
2022/01/18 14:15:36;;;;;;;6.28;1.95;;;17.10;94.50;;;;;;5055615;28;20132;-71
2022/01/18 14:18:06;;;;;;;6.45;1.75;;;17.00;94.50;;;;;;5055257;28;20420;-71
2022/01/18 14:20:33;;;;;;;7.05;2.17;;;17.00;94.80;;;;;;5055447;28;20469;-71
2022/01/18 14:23:00;;;;;;;8.40;1.92;;;17.00;94.70;;;;;;5055353;28;20029;-70
2022/01/18 14:25:33;;;;;;;10.02;2.38;;;17.00;94.70;;;;;;5037509;28;20120;-72
2022/01/18 14:28:10;;;;;;;9.70;2.10;;;16.90;94.90;;;;;;5055346;28;20025;-72
2022/01/18 14:30:37;;;;;;;8.15;1.95;;;16.90;94.80;;;;;;5037262;28;20021;-70
2022/01/18 14:33:08;;;;;;;6.60;2.15;;;17.00;94.80;;;;;;5055668;28;20040;-73
2022/01/18 14:35:38;;;;;;;13.13;2.10;;;17.00;94.50;;;;;;5053726;28;20029;-71
2022/01/18 14:38:06;;;;;;;7.75;2.08;;;17.00;94.80;;;;;;5054046;28;20032;-73